sensor_id;sensor_type;location;lat;lon;timestamp;pressure;altitude;pressure_sealevel;temperature;humidity
20105;BME280;10212;42.714;23.310;2023-05-23T02:44:48;95051.78;;;9.72;100.00
20105;BME280;10212;42.714;23.310;2023-05-23T02:54:51;95043.75;;;9.73;100.00
20105;BME280;10212;42.714;23.310;2023-05-23T03:04:57;95042.38;;;9.77;100.00
20105;BME280;10212;42.714;23.310;2023-05-23T03:14:59;95044.16;;;9.77;100.00
20105;BME280;10212;42.714;23.310;2023-05-23T03:25:01;95043.56;;;9.68;100.00
20105;BME280;10212;42.714;23.310;2023-05-23T03:35:03;95050.59;;;9.81;100.00
20105;BME280;10212;42.714;23.310;2023-05-23T03:45:06;95070.19;;;9.70;100.00
20105;BME280;10212;42.714;23.310;2023-05-23T03:55:09;95080.63;;;9.77;100.00
20105;BME280;10212;42.714;23.310;2023-05-23T04:05:13;95076.44;;;9.89;100.00
20105;BME280;10212;42.714;23.310;2023-05-23T04:15:21;95075.53;;;9.41;100.00
20105;BME280;10212;42.714;23.310;2023-05-23T04:25:26;95070.31;;;9.41;100.00
20105;BME280;10212;42.714;23.310;2023-05-23T04:35:27;95082.59;;;9.61;100.00
20105;BME280;10212;42.714;23.310;2023-05-23T04:45:28;95093.50;;;9.29;100.00
20105;BME280;10212;42.714;23.310;2023-05-23T04:55:29;95098.13;;;9.34;100.00
20105;BME280;10212;42.714;23.310;2023-05-23T05:05:30;95088.44;;;9.77;100.00
20105;BME280;10212;42.714;23.310;2023-05-23T05:15:30;95109.28;;;9.91;100.00
20105;BME280;10212;42.714;23.310;2023-05-23T05:25:31;95112.53;;;10.06;100.00
20105;BME280;10212;42.714;23.310;2023-05-23T05:35:34;95102.13;;;10.06;100.00
20105;BME280;10212;42.714;23.310;2023-05-23T05:45:35;95104.16;;;10.52;100.00
20105;BME280;10212;42.714;23.310;2023-05-23T05:55:36;95117.28;;;11.04;100.00
20105;BME280;10212;42.714;23.310;2023-05-23T06:05:37;95124.38;;;11.50;100.00
20105;BME280;10212;42.714;23.310;2023-05-23T06:15:39;95114.84;;;11.23;100.00
20105;BME280;10212;42.714;23.310;2023-05-23T06:25:40;95123.16;;;11.52;100.00
20105;BME280;10212;42.714;23.310;2023-05-23T06:35:41;95112.50;;;11.93;100.00
20105;BME280;10212;42.714;23.310;2023-05-23T06:45:46;95111.38;;;12.65;100.00
20105;BME280;10212;42.714;23.310;2023-05-23T06:55:47;95106.03;;;12.79;100.00
20105;BME280;10212;42.714;23.310;2023-05-23T07:05:47;95097.69;;;12.45;100.00
20105;BME280;10212;42.714;23.310;2023-05-23T07:15:48;95081.94;;;12.51;100.00
20105;BME280;10212;42.714;23.310;2023-05-23T07:25:49;95074.00;;;12.84;100.00
20105;BME280;10212;42.714;23.310;2023-05-23T07:35:49;95059.25;;;13.39;100.00
20105;BME280;10212;42.714;23.310;2023-05-23T07:45:50;95061.84;;;13.89;100.00
20105;BME280;10212;42.714;23.310;2023-05-23T07:55:50;95059.28;;;14.25;100.00
20105;BME280;10212;42.714;23.310;2023-05-23T08:05:51;95054.97;;;14.90;98.83
20105;BME280;10212;42.714;23.310;2023-05-23T08:15:52;95048.91;;;14.90;97.03
20105;BME280;10212;42.714;23.310;2023-05-23T08:25:53;95048.22;;;15.36;94.36
20105;BME280;10212;42.714;23.310;2023-05-23T08:35:55;95035.41;;;15.39;96.65
20105;BME280;10212;42.714;23.310;2023-05-23T08:45:56;95032.16;;;15.96;92.22
20105;BME280;10212;42.714;23.310;2023-05-23T08:55:58;95029.13;;;16.56;91.70
20105;BME280;10212;42.714;23.310;2023-05-23T09:06:02;95014.78;;;17.08;88.46
20105;BME280;10212;42.714;23.310;2023-05-23T09:16:05;95007.28;;;18.05;81.07
20105;BME280;10212;42.714;23.310;2023-05-23T09:26:09;94997.19;;;18.30;76.85
20105;BME280;10212;42.714;23.310;2023-05-23T09:36:11;94986.72;;;18.46;70.47
20105;BME280;10212;42.714;23.310;2023-05-23T09:46:12;94973.97;;;18.96;62.64
20105;BME280;10212;42.714;23.310;2023-05-23T09:56:14;94979.16;;;19.34;59.81
20105;BME280;10212;42.714;23.310;2023-05-23T10:06:27;94968.59;;;19.55;59.60
20105;BME280;10212;42.714;23.310;2023-05-23T10:26:49;94958.84;;;20.08;53.19
20105;BME280;10212;42.714;23.310;2023-05-23T10:37:01;94945.25;;;20.51;51.80
20105;BME280;10212;42.714;23.310;2023-05-23T10:47:02;94941.97;;;20.75;49.42
20105;BME280;10212;42.714;23.310;2023-05-23T10:57:04;94934.19;;;21.00;48.15
20105;BME280;10212;42.714;23.310;2023-05-23T11:07:05;94928.41;;;20.92;47.56
20105;BME280;10212;42.714;23.310;2023-05-23T11:17:31;94916.84;;;21.58;46.81
20105;BME280;10212;42.714;23.310;2023-05-23T11:27:33;94913.53;;;21.77;44.37
20105;BME280;10212;42.714;23.310;2023-05-23T11:37:34;94907.69;;;22.10;44.72
20105;BME280;10212;42.714;23.310;2023-05-23T11:47:42;94900.19;;;21.87;43.81
20105;BME280;10212;42.714;23.310;2023-05-23T11:57:43;94901.47;;;22.44;43.33
20105;BME280;10212;42.714;23.310;2023-05-23T12:07:48;94881.94;;;22.79;44.19
20105;BME280;10212;42.714;23.310;2023-05-23T12:17:49;94876.16;;;22.96;42.96
20105;BME280;10212;42.714;23.310;2023-05-23T12:27:50;94868.75;;;23.65;39.06
20105;BME280;10212;42.714;23.310;2023-05-23T12:37:55;94843.91;;;23.55;39.14
20105;BME280;10212;42.714;23.310;2023-05-23T12:47:56;94852.88;;;24.21;35.20
20105;BME280;10212;42.714;23.310;2023-05-23T12:57:57;94836.03;;;24.63;34.98
20105;BME280;10212;42.714;23.310;2023-05-23T13:07:57;94834.72;;;24.23;34.51
20105;BME280;10212;42.714;23.310;2023-05-23T13:17:58;94821.50;;;24.83;33.04
20105;BME280;10212;42.714;23.310;2023-05-23T13:27:59;94838.81;;;23.73;34.62
20105;BME280;10212;42.714;23.310;2023-05-23T13:38:01;94833.97;;;23.75;33.24
20105;BME280;10212;42.714;23.310;2023-05-23T13:48:01;94826.59;;;24.00;34.47
20105;BME280;10212;42.714;23.310;2023-05-23T13:58:02;94819.38;;;24.15;33.57
20105;BME280;10212;42.714;23.310;2023-05-23T14:08:02;94824.16;;;23.56;33.41
20105;BME280;10212;42.714;23.310;2023-05-23T14:18:04;94825.78;;;22.41;34.11
20105;BME280;10212;42.714;23.310;2023-05-23T14:28:05;94821.84;;;22.83;43.36
20105;BME280;10212;42.714;23.310;2023-05-23T14:38:07;94822.63;;;22.64;42.09
20105;BME280;10212;42.714;23.310;2023-05-23T14:48:10;94813.81;;;23.21;36.02
20105;BME280;10212;42.714;23.310;2023-05-23T14:58:12;94812.47;;;23.57;37.25
20105;BME280;10212;42.714;23.310;2023-05-23T15:08:15;94791.38;;;23.75;40.74
20105;BME280;10212;42.714;23.310;2023-05-23T15:18:19;94805.22;;;23.44;36.73
20105;BME280;10212;42.714;23.310;2023-05-23T15:28:23;94795.41;;;22.92;36.95
20105;BME280;10212;42.714;23.310;2023-05-23T15:38:24;94797.75;;;22.35;39.30
20105;BME280;10212;42.714;23.310;2023-05-23T15:48:26;94796.78;;;22.26;38.71
20105;BME280;10212;42.714;23.310;2023-05-23T15:58:30;94791.84;;;21.95;39.95
20105;BME280;10212;42.714;23.310;2023-05-23T16:08:35;94800.59;;;21.65;43.98
20105;BME280;10212;42.714;23.310;2023-05-23T16:18:36;94802.59;;;21.19;44.31
20105;BME280;10212;42.714;23.310;2023-05-23T16:28:40;94795.78;;;21.13;43.89
20105;BME280;10212;42.714;23.310;2023-05-23T16:38:42;94808.91;;;20.94;45.51
20105;BME280;10212;42.714;23.310;2023-05-23T16:48:45;94814.50;;;20.82;46.21
20105;BME280;10212;42.714;23.310;2023-05-23T16:58:52;94820.44;;;20.63;48.72
20105;BME280;10212;42.714;23.310;2023-05-23T17:08:56;94830.59;;;20.45;49.45
20105;BME280;10212;42.714;23.310;2023-05-23T17:19:00;94814.84;;;20.14;51.17
20105;BME280;10212;42.714;23.310;2023-05-23T17:29:06;94826.00;;;20.11;52.87
20105;BME280;10212;42.714;23.310;2023-05-23T17:39:09;94832.41;;;19.73;55.53
20105;BME280;10212;42.714;23.310;2023-05-23T17:49:13;94837.22;;;19.35;56.30
20105;BME280;10212;42.714;23.310;2023-05-23T17:59:14;94850.63;;;18.97;54.65
20105;BME280;10212;42.714;23.310;2023-05-23T18:09:17;94859.53;;;18.64;50.77
20105;BME280;10212;42.714;23.310;2023-05-23T18:19:23;94875.03;;;18.45;48.86
20105;BME280;10212;42.714;23.310;2023-05-23T18:29:24;94887.28;;;18.13;50.82
20105;BME280;10212;42.714;23.310;2023-05-23T18:39:26;94901.78;;;17.72;52.51
20105;BME280;10212;42.714;23.310;2023-05-23T18:49:28;94908.91;;;17.39;53.78
20105;BME280;10212;42.714;23.310;2023-05-23T18:59:30;94923.50;;;17.19;54.69
20105;BME280;10212;42.714;23.310;2023-05-23T19:09:31;94951.38;;;16.93;56.79
20105;BME280;10212;42.714;23.310;2023-05-23T19:19:33;94962.97;;;16.69;58.26
20105;BME280;10212;42.714;23.310;2023-05-23T19:29:35;94973.34;;;16.36;59.47
20105;BME280;10212;42.714;23.310;2023-05-23T19:39:36;94986.63;;;16.07;61.32
20105;BME280;10212;42.714;23.310;2023-05-23T19:49:38;95001.56;;;15.89;62.13
20105;BME280;10212;42.714;23.310;2023-05-23T19:59:40;95002.66;;;15.59;64.58
20105;BME280;10212;42.714;23.310;2023-05-23T20:09:42;95007.66;;;15.43;65.62
20105;BME280;10212;42.714;23.310;2023-05-23T20:19:45;95011.88;;;15.15;67.82
20105;BME280;10212;42.714;23.310;2023-05-23T20:29:49;95012.34;;;15.00;69.55
20105;BME280;10212;42.714;23.310;2023-05-23T20:39:52;95010.34;;;14.90;71.23
20105;BME280;10212;42.714;23.310;2023-05-23T20:49:54;95002.59;;;14.47;74.54
20105;BME280;10212;42.714;23.310;2023-05-23T20:59:57;95006.41;;;14.40;75.85
20105;BME280;10212;42.714;23.310;2023-05-23T21:09:59;95006.94;;;14.18;78.34
20105;BME280;10212;42.714;23.310;2023-05-23T21:20:02;95015.81;;;14.05;79.66
20105;BME280;10212;42.714;23.310;2023-05-23T21:30:05;95029.63;;;14.12;77.32
20105;BME280;10212;42.714;23.310;2023-05-23T21:40:08;95032.94;;;14.07;79.01
20105;BME280;10212;42.714;23.310;2023-05-23T21:50:12;95039.97;;;13.95;79.32
20105;BME280;10212;42.714;23.310;2023-05-23T22:00:15;95037.38;;;13.64;81.59
20105;BME280;10212;42.714;23.310;2023-05-23T22:10:20;95047.06;;;13.33;82.89
20105;BME280;10212;42.714;23.310;2023-05-23T22:20:24;95042.00;;;13.19;83.38
20105;BME280;10212;42.714;23.310;2023-05-23T22:30:27;95039.25;;;12.76;86.20
20105;BME280;10212;42.714;23.310;2023-05-23T22:40:30;95037.25;;;12.72;87.11
20105;BME280;10212;42.714;23.310;2023-05-23T22:50:34;95047.22;;;12.63;87.51
20105;BME280;10212;42.714;23.310;2023-05-23T23:00:39;95029.13;;;12.61;88.23
20105;BME280;10212;42.714;23.310;2023-05-23T23:10:40;95019.69;;;12.41;90.04
20105;BME280;10212;42.714;23.310;2023-05-23T23:20:44;95024.09;;;12.41;90.70
20105;BME280;10212;42.714;23.310;2023-05-23T23:30:48;95024.63;;;12.24;91.56
20105;BME280;10212;42.714;23.310;2023-05-23T23:40:48;95021.06;;;11.93;93.09
20105;BME280;10212;42.714;23.310;2023-05-23T23:50:52;95010.66;;;11.86;93.83
